sensor_id;sensor_type;location;lat;lon;timestamp;P1;P2;P0
76101;PMS7003;64830;46.910;6.354;2024-03-17T00:02:02;6.00;6.00;3.75
76101;PMS7003;64830;46.910;6.354;2024-03-17T00:04:27;5.00;3.00;3.00
76101;PMS7003;64830;46.910;6.354;2024-03-17T00:06:53;3.00;3.00;2.00
76101;PMS7003;64830;46.910;6.354;2024-03-17T00:09:18;2.75;2.75;2.25
76101;PMS7003;64830;46.910;6.354;2024-03-17T00:11:44;3.00;3.00;2.50
76101;PMS7003;64830;46.910;6.354;2024-03-17T00:14:10;5.50;3.25;2.25
76101;PMS7003;64830;46.910;6.354;2024-03-17T00:16:36;5.75;4.00;2.00
76101;PMS7003;64830;46.910;6.354;2024-03-17T00:19:02;3.00;3.00;2.50
76101;PMS7003;64830;46.910;6.354;2024-03-17T00:21:27;1.00;1.00;0.00
76101;PMS7003;64830;46.910;6.354;2024-03-17T00:23:54;3.75;3.75;2.50
76101;PMS7003;64830;46.910;6.354;2024-03-17T00:26:19;5.75;5.75;4.50
76101;PMS7003;64830;46.910;6.354;2024-03-17T00:28:45;3.00;3.00;3.00
76101;PMS7003;64830;46.910;6.354;2024-03-17T00:31:16;3.00;3.00;2.00
76101;PMS7003;64830;46.910;6.354;2024-03-17T00:33:42;2.25;2.25;2.00
76101;PMS7003;64830;46.910;6.354;2024-03-17T00:36:07;2.50;2.00;2.00
76101;PMS7003;64830;46.910;6.354;2024-03-17T00:38:33;3.00;3.00;2.00
76101;PMS7003;64830;46.910;6.354;2024-03-17T00:40:58;2.50;2.50;2.25
76101;PMS7003;64830;46.910;6.354;2024-03-17T00:43:24;6.00;5.00;3.00
76101;PMS7003;64830;46.910;6.354;2024-03-17T00:45:52;3.75;3.00;2.50
76101;PMS7003;64830;46.910;6.354;2024-03-17T00:48:18;5.00;5.00;3.00
76101;PMS7003;64830;46.910;6.354;2024-03-17T00:50:44;2.25;2.25;2.00
76101;PMS7003;64830;46.910;6.354;2024-03-17T00:53:10;4.75;4.50;2.00
76101;PMS7003;64830;46.910;6.354;2024-03-17T00:55:36;2.50;2.00;2.00
76101;PMS7003;64830;46.910;6.354;2024-03-17T00:58:01;3.50;3.50;2.75
76101;PMS7003;64830;46.910;6.354;2024-03-17T01:00:28;6.00;3.00;2.25
76101;PMS7003;64830;46.910;6.354;2024-03-17T01:02:53;7.25;6.00;5.00
76101;PMS7003;64830;46.910;6.354;2024-03-17T01:05:19;3.00;3.00;3.00
76101;PMS7003;64830;46.910;6.354;2024-03-17T01:07:44;6.00;6.00;3.00
76101;PMS7003;64830;46.910;6.354;2024-03-17T01:10:12;3.25;3.25;2.25
76101;PMS7003;64830;46.910;6.354;2024-03-17T01:12:37;5.50;5.50;3.75
76101;PMS7003;64830;46.910;6.354;2024-03-17T01:15:04;6.00;3.50;3.00
76101;PMS7003;64830;46.910;6.354;2024-03-17T01:17:30;5.00;5.00;4.50
76101;PMS7003;64830;46.910;6.354;2024-03-17T01:19:56;6.00;6.00;5.00
76101;PMS7003;64830;46.910;6.354;2024-03-17T01:22:21;8.75;6.00;4.00
76101;PMS7003;64830;46.910;6.354;2024-03-17T01:24:47;6.75;5.00;4.00
76101;PMS7003;64830;46.910;6.354;2024-03-17T01:27:12;3.00;2.75;2.00
76101;PMS7003;64830;46.910;6.354;2024-03-17T01:29:41;7.00;6.00;3.50
76101;PMS7003;64830;46.910;6.354;2024-03-17T01:32:09;2.25;2.25;2.00
76101;PMS7003;64830;46.910;6.354;2024-03-17T01:34:36;11.50;5.00;3.00
76101;PMS7003;64830;46.910;6.354;2024-03-17T01:37:04;4.00;4.00;3.50
76101;PMS7003;64830;46.910;6.354;2024-03-17T01:39:30;3.50;3.50;3.25
76101;PMS7003;64830;46.910;6.354;2024-03-17T01:41:57;6.00;6.00;3.50
76101;PMS7003;64830;46.910;6.354;2024-03-17T01:44:24;5.75;5.00;2.75
76101;PMS7003;64830;46.910;6.354;2024-03-17T01:46:52;6.25;3.00;3.00
76101;PMS7003;64830;46.910;6.354;2024-03-17T01:49:18;7.25;6.75;5.00
76101;PMS7003;64830;46.910;6.354;2024-03-17T01:51:45;7.00;5.00;3.00
76101;PMS7003;64830;46.910;6.354;2024-03-17T01:54:12;7.50;6.25;5.00
76101;PMS7003;64830;46.910;6.354;2024-03-17T01:56:39;8.00;8.00;5.00
76101;PMS7003;64830;46.910;6.354;2024-03-17T01:59:05;9.00;6.00;3.00
76101;PMS7003;64830;46.910;6.354;2024-03-17T02:01:32;8.75;6.00;5.00
76101;PMS7003;64830;46.910;6.354;2024-03-17T02:03:58;6.25;5.00;3.00
76101;PMS7003;64830;46.910;6.354;2024-03-17T02:06:24;3.25;3.25;3.25
76101;PMS7003;64830;46.910;6.354;2024-03-17T02:08:50;5.75;3.00;3.00
76101;PMS7003;64830;46.910;6.354;2024-03-17T02:11:25;3.00;3.00;2.00
76101;PMS7003;64830;46.910;6.354;2024-03-17T02:13:53;7.00;4.00;3.00
76101;PMS7003;64830;46.910;6.354;2024-03-17T02:16:20;6.50;4.00;3.00
76101;PMS7003;64830;46.910;6.354;2024-03-17T02:18:46;4.50;3.50;3.00
76101;PMS7003;64830;46.910;6.354;2024-03-17T02:21:12;3.00;3.00;2.25
76101;PMS7003;64830;46.910;6.354;2024-03-17T02:23:38;4.25;3.00;3.00
76101;PMS7003;64830;46.910;6.354;2024-03-17T02:26:03;3.00;3.00;3.00
76101;PMS7003;64830;46.910;6.354;2024-03-17T02:28:29;2.25;2.25;2.00
76101;PMS7003;64830;46.910;6.354;2024-03-17T02:30:54;7.00;5.00;3.00
76101;PMS7003;64830;46.910;6.354;2024-03-17T02:33:20;3.00;3.00;2.00
76101;PMS7003;64830;46.910;6.354;2024-03-17T02:35:48;4.25;3.00;2.75
76101;PMS7003;64830;46.910;6.354;2024-03-17T02:38:16;5.50;4.50;3.00
76101;PMS7003;64830;46.910;6.354;2024-03-17T02:41:01;3.25;3.25;3.00
76101;PMS7003;64830;46.910;6.354;2024-03-17T02:43:27;5.75;2.50;2.00
76101;PMS7003;64830;46.910;6.354;2024-03-17T02:45:52;5.50;2.25;2.25
76101;PMS7003;64830;46.910;6.354;2024-03-17T02:48:18;2.00;1.25;1.25
76101;PMS7003;64830;46.910;6.354;2024-03-17T02:50:43;2.50;2.50;1.75
76101;PMS7003;64830;46.910;6.354;2024-03-17T02:53:09;3.00;3.00;2.75
76101;PMS7003;64830;46.910;6.354;2024-03-17T02:55:34;2.00;2.00;2.00
76101;PMS7003;64830;46.910;6.354;2024-03-17T02:58:00;2.75;2.50;2.25
76101;PMS7003;64830;46.910;6.354;2024-03-17T03:00:25;3.75;2.00;1.75
76101;PMS7003;64830;46.910;6.354;2024-03-17T03:02:51;2.75;2.75;2.25
76101;PMS7003;64830;46.910;6.354;2024-03-17T03:05:16;6.00;5.00;3.00
76101;PMS7003;64830;46.910;6.354;2024-03-17T03:07:42;2.50;1.75;1.25
76101;PMS7003;64830;46.910;6.354;2024-03-17T03:10:08;5.75;5.75;3.75
76101;PMS7003;64830;46.910;6.354;2024-03-17T03:12:33;3.50;3.00;3.00
76101;PMS7003;64830;46.910;6.354;2024-03-17T03:14:59;5.50;3.00;3.00
76101;PMS7003;64830;46.910;6.354;2024-03-17T03:17:24;3.00;3.00;1.75
76101;PMS7003;64830;46.910;6.354;2024-03-17T03:19:50;5.00;5.00;3.00
76101;PMS7003;64830;46.910;6.354;2024-03-17T03:22:15;5.00;2.50;2.50
76101;PMS7003;64830;46.910;6.354;2024-03-17T03:24:41;6.00;5.25;3.00
76101;PMS7003;64830;46.910;6.354;2024-03-17T03:27:07;4.75;4.75;2.25
76101;PMS7003;64830;46.910;6.354;2024-03-17T03:29:33;2.75;2.50;2.50
76101;PMS7003;64830;46.910;6.354;2024-03-17T03:31:59;6.00;3.50;2.75
76101;PMS7003;64830;46.910;6.354;2024-03-17T03:34:24;3.00;3.00;2.75
76101;PMS7003;64830;46.910;6.354;2024-03-17T03:36:50;2.00;2.00;2.00
76101;PMS7003;64830;46.910;6.354;2024-03-17T03:39:16;3.50;3.50;2.25
76101;PMS7003;64830;46.910;6.354;2024-03-17T03:41:41;3.00;2.00;2.00
76101;PMS7003;64830;46.910;6.354;2024-03-17T03:44:07;3.00;2.00;2.00
76101;PMS7003;64830;46.910;6.354;2024-03-17T03:46:35;2.00;2.00;2.00
76101;PMS7003;64830;46.910;6.354;2024-03-17T03:49:00;4.00;2.50;2.25
76101;PMS7003;64830;46.910;6.354;2024-03-17T03:51:26;4.00;2.00;2.00
76101;PMS7003;64830;46.910;6.354;2024-03-17T03:53:51;2.25;2.25;2.00
76101;PMS7003;64830;46.910;6.354;2024-03-17T03:56:17;3.50;2.75;2.00
76101;PMS7003;64830;46.910;6.354;2024-03-17T03:58:43;3.00;2.00;1.50
76101;PMS7003;64830;46.910;6.354;2024-03-17T04:01:11;3.00;3.00;2.00
76101;PMS7003;64830;46.910;6.354;2024-03-17T04:03:36;5.50;3.00;3.00
76101;PMS7003;64830;46.910;6.354;2024-03-17T04:08:35;6.25;5.00;3.00
76101;PMS7003;64830;46.910;6.354;2024-03-17T04:11:02;5.00;5.00;3.00
76101;PMS7003;64830;46.910;6.354;2024-03-17T04:13:28;7.00;6.25;5.00
76101;PMS7003;64830;46.910;6.354;2024-03-17T04:15:58;6.75;5.75;4.50
76101;PMS7003;64830;46.910;6.354;2024-03-17T04:18:24;6.75;5.00;3.00
76101;PMS7003;64830;46.910;6.354;2024-03-17T04:20:54;4.00;3.00;2.75
76101;PMS7003;64830;46.910;6.354;2024-03-17T04:23:20;5.00;3.00;2.50
76101;PMS7003;64830;46.910;6.354;2024-03-17T04:25:46;7.75;6.25;5.75
76101;PMS7003;64830;46.910;6.354;2024-03-17T04:28:12;2.00;2.00;2.00
76101;PMS7003;64830;46.910;6.354;2024-03-17T04:30:39;4.75;4.00;2.50
76101;PMS7003;64830;46.910;6.354;2024-03-17T04:33:04;5.25;3.50;2.75
76101;PMS7003;64830;46.910;6.354;2024-03-17T04:35:31;11.00;5.25;3.00
76101;PMS7003;64830;46.910;6.354;2024-03-17T04:38:01;7.00;5.00;3.00
76101;PMS7003;64830;46.910;6.354;2024-03-17T04:40:26;3.50;2.00;1.50
76101;PMS7003;64830;46.910;6.354;2024-03-17T04:42:52;3.00;3.00;2.00
76101;PMS7003;64830;46.910;6.354;2024-03-17T04:45:17;5.00;5.00;2.75
76101;PMS7003;64830;46.910;6.354;2024-03-17T04:47:42;4.50;4.50;4.50
76101;PMS7003;64830;46.910;6.354;2024-03-17T04:50:08;2.75;2.00;2.00
76101;PMS7003;64830;46.910;6.354;2024-03-17T04:52:34;2.25;2.25;2.00
76101;PMS7003;64830;46.910;6.354;2024-03-17T04:54:59;3.00;1.25;1.00
76101;PMS7003;64830;46.910;6.354;2024-03-17T04:57:25;3.00;3.00;2.25
76101;PMS7003;64830;46.910;6.354;2024-03-17T04:59:50;5.25;3.00;2.00
76101;PMS7003;64830;46.910;6.354;2024-03-17T05:02:15;4.50;3.00;3.00
76101;PMS7003;64830;46.910;6.354;2024-03-17T05:04:41;2.25;2.25;2.00
76101;PMS7003;64830;46.910;6.354;2024-03-17T05:07:07;3.00;3.00;2.75
76101;PMS7003;64830;46.910;6.354;2024-03-17T05:09:34;1.00;1.00;1.00
76101;PMS7003;64830;46.910;6.354;2024-03-17T05:11:59;3.00;3.00;2.00
76101;PMS7003;64830;46.910;6.354;2024-03-17T05:14:25;2.75;2.75;2.00
76101;PMS7003;64830;46.910;6.354;2024-03-17T05:16:51;2.75;2.25;1.00
76101;PMS7003;64830;46.910;6.354;2024-03-17T05:19:17;1.00;1.00;1.00
76101;PMS7003;64830;46.910;6.354;2024-03-17T05:21:43;2.50;2.50;2.00
76101;PMS7003;64830;46.910;6.354;2024-03-17T05:24:10;3.00;3.00;3.00
76101;PMS7003;64830;46.910;6.354;2024-03-17T05:26:36;4.00;4.00;2.50
76101;PMS7003;64830;46.910;6.354;2024-03-17T05:29:01;2.50;2.50;2.25
76101;PMS7003;64830;46.910;6.354;2024-03-17T05:31:27;7.00;5.00;2.25
76101;PMS7003;64830;46.910;6.354;2024-03-17T05:33:53;2.00;1.75;1.00
76101;PMS7003;64830;46.910;6.354;2024-03-17T05:36:18;5.00;5.00;3.00
76101;PMS7003;64830;46.910;6.354;2024-03-17T05:38:46;2.00;2.00;1.25
76101;PMS7003;64830;46.910;6.354;2024-03-17T05:41:12;3.50;2.00;1.25
76101;PMS7003;64830;46.910;6.354;2024-03-17T05:43:38;2.50;2.50;2.50
76101;PMS7003;64830;46.910;6.354;2024-03-17T05:46:05;2.00;2.00;1.00
76101;PMS7003;64830;46.910;6.354;2024-03-17T05:48:40;4.00;3.00;2.00
76101;PMS7003;64830;46.910;6.354;2024-03-17T05:51:06;3.50;2.75;2.00
76101;PMS7003;64830;46.910;6.354;2024-03-17T05:53:32;2.75;2.75;2.50
76101;PMS7003;64830;46.910;6.354;2024-03-17T05:55:59;8.00;5.00;3.00
76101;PMS7003;64830;46.910;6.354;2024-03-17T05:58:25;6.50;6.00;5.00
76101;PMS7003;64830;46.910;6.354;2024-03-17T06:00:50;6.00;6.00;4.25
76101;PMS7003;64830;46.910;6.354;2024-03-17T06:03:16;5.00;5.00;3.00
76101;PMS7003;64830;46.910;6.354;2024-03-17T06:05:42;4.50;3.50;3.00
76101;PMS7003;64830;46.910;6.354;2024-03-17T06:08:10;8.00;6.00;5.00
76101;PMS7003;64830;46.910;6.354;2024-03-17T06:10:36;6.00;4.00;3.00
76101;PMS7003;64830;46.910;6.354;2024-03-17T06:13:03;5.25;5.00;3.00
76101;PMS7003;64830;46.910;6.354;2024-03-17T06:15:29;5.00;5.00;3.50
76101;PMS7003;64830;46.910;6.354;2024-03-17T06:17:55;3.00;3.00;2.25
76101;PMS7003;64830;46.910;6.354;2024-03-17T06:20:21;3.00;3.00;3.00
76101;PMS7003;64830;46.910;6.354;2024-03-17T06:22:51;5.50;2.50;2.00
76101;PMS7003;64830;46.910;6.354;2024-03-17T06:25:17;2.00;2.00;1.75
76101;PMS7003;64830;46.910;6.354;2024-03-17T06:27:43;5.00;5.00;3.00
76101;PMS7003;64830;46.910;6.354;2024-03-17T06:30:14;3.00;1.25;1.25
76101;PMS7003;64830;46.910;6.354;2024-03-17T06:32:43;2.75;1.75;1.00
76101;PMS7003;64830;46.910;6.354;2024-03-17T06:35:15;3.00;2.00;1.50
76101;PMS7003;64830;46.910;6.354;2024-03-17T06:37:41;5.00;3.00;2.50
76101;PMS7003;64830;46.910;6.354;2024-03-17T06:40:08;3.00;3.00;3.00
76101;PMS7003;64830;46.910;6.354;2024-03-17T06:42:38;5.50;4.00;3.00
76101;PMS7003;64830;46.910;6.354;2024-03-17T06:45:04;3.50;3.00;2.00
76101;PMS7003;64830;46.910;6.354;2024-03-17T06:47:30;5.00;5.00;3.00
76101;PMS7003;64830;46.910;6.354;2024-03-17T06:49:55;3.00;3.00;2.00
76101;PMS7003;64830;46.910;6.354;2024-03-17T06:52:21;4.00;4.00;3.00
76101;PMS7003;64830;46.910;6.354;2024-03-17T06:54:47;3.00;3.00;2.00
76101;PMS7003;64830;46.910;6.354;2024-03-17T06:57:15;5.00;3.00;3.00
76101;PMS7003;64830;46.910;6.354;2024-03-17T06:59:40;3.00;3.00;3.00
76101;PMS7003;64830;46.910;6.354;2024-03-17T07:02:06;5.50;5.00;3.00
76101;PMS7003;64830;46.910;6.354;2024-03-17T07:04:32;1.75;1.75;1.75
76101;PMS7003;64830;46.910;6.354;2024-03-17T07:06:57;3.00;3.00;2.00
76101;PMS7003;64830;46.910;6.354;2024-03-17T07:09:23;3.00;3.00;2.00
76101;PMS7003;64830;46.910;6.354;2024-03-17T07:11:49;4.50;3.00;2.25
76101;PMS7003;64830;46.910;6.354;2024-03-17T07:14:14;6.00;3.00;2.00
76101;PMS7003;64830;46.910;6.354;2024-03-17T07:16:40;3.00;3.00;2.00
76101;PMS7003;64830;46.910;6.354;2024-03-17T07:19:05;2.00;1.25;0.00
76101;PMS7003;64830;46.910;6.354;2024-03-17T07:21:30;7.00;6.25;3.00
76101;PMS7003;64830;46.910;6.354;2024-03-17T07:23:59;7.00;5.50;2.00
76101;PMS7003;64830;46.910;6.354;2024-03-17T07:26:29;6.00;6.00;3.75
76101;PMS7003;64830;46.910;6.354;2024-03-17T07:28:55;3.00;3.00;2.25
76101;PMS7003;64830;46.910;6.354;2024-03-17T07:31:20;5.75;4.25;2.75
76101;PMS7003;64830;46.910;6.354;2024-03-17T07:33:46;2.50;2.50;1.50
76101;PMS7003;64830;46.910;6.354;2024-03-17T07:36:11;6.00;6.00;5.00
76101;PMS7003;64830;46.910;6.354;2024-03-17T07:38:37;6.75;6.75;4.25
76101;PMS7003;64830;46.910;6.354;2024-03-17T07:41:03;4.50;2.75;2.00
76101;PMS7003;64830;46.910;6.354;2024-03-17T07:43:36;6.00;4.00;3.00
76101;PMS7003;64830;46.910;6.354;2024-03-17T07:46:04;5.50;5.00;4.25
76101;PMS7003;64830;46.910;6.354;2024-03-17T07:48:35;5.00;5.00;3.00
76101;PMS7003;64830;46.910;6.354;2024-03-17T07:51:05;3.00;3.00;2.00
76101;PMS7003;64830;46.910;6.354;2024-03-17T07:53:39;4.50;3.00;2.75
76101;PMS7003;64830;46.910;6.354;2024-03-17T07:56:07;5.50;3.00;2.75
76101;PMS7003;64830;46.910;6.354;2024-03-17T07:58:34;6.75;5.00;3.75
76101;PMS7003;64830;46.910;6.354;2024-03-17T08:01:03;2.75;2.75;2.00
76101;PMS7003;64830;46.910;6.354;2024-03-17T08:03:34;4.50;4.50;3.00
76101;PMS7003;64830;46.910;6.354;2024-03-17T08:06:03;2.00;2.00;2.00
76101;PMS7003;64830;46.910;6.354;2024-03-17T08:08:30;2.00;2.00;1.00
76101;PMS7003;64830;46.910;6.354;2024-03-17T08:10:56;2.00;2.00;1.50
76101;PMS7003;64830;46.910;6.354;2024-03-17T08:13:22;2.50;2.50;2.25
76101;PMS7003;64830;46.910;6.354;2024-03-17T08:15:54;3.25;3.25;3.00
76101;PMS7003;64830;46.910;6.354;2024-03-17T08:18:21;2.75;2.75;2.25
76101;PMS7003;64830;46.910;6.354;2024-03-17T08:20:47;5.00;3.00;2.00
76101;PMS7003;64830;46.910;6.354;2024-03-17T08:23:12;5.00;5.00;3.00
76101;PMS7003;64830;46.910;6.354;2024-03-17T08:25:38;4.00;3.00;2.75
76101;PMS7003;64830;46.910;6.354;2024-03-17T08:28:04;6.00;3.00;2.50
76101;PMS7003;64830;46.910;6.354;2024-03-17T08:30:30;3.00;3.00;2.50
76101;PMS7003;64830;46.910;6.354;2024-03-17T08:32:56;3.00;3.00;3.00
76101;PMS7003;64830;46.910;6.354;2024-03-17T08:35:22;7.25;3.00;2.00
76101;PMS7003;64830;46.910;6.354;2024-03-17T08:37:48;5.75;2.00;1.75
76101;PMS7003;64830;46.910;6.354;2024-03-17T08:40:13;2.75;2.75;2.00
76101;PMS7003;64830;46.910;6.354;2024-03-17T08:42:39;2.25;2.25;2.00
76101;PMS7003;64830;46.910;6.354;2024-03-17T08:45:04;3.00;3.00;2.25
76101;PMS7003;64830;46.910;6.354;2024-03-17T08:47:30;3.25;3.25;3.00
76101;PMS7003;64830;46.910;6.354;2024-03-17T08:49:56;6.50;6.00;4.00
76101;PMS7003;64830;46.910;6.354;2024-03-17T08:52:23;8.75;6.75;6.00
76101;PMS7003;64830;46.910;6.354;2024-03-17T08:54:48;4.50;4.50;3.50
76101;PMS7003;64830;46.910;6.354;2024-03-17T08:57:16;7.25;6.25;4.50
76101;PMS7003;64830;46.910;6.354;2024-03-17T08:59:42;7.00;6.50;5.00
76101;PMS7003;64830;46.910;6.354;2024-03-17T09:02:09;8.50;7.00;3.75
76101;PMS7003;64830;46.910;6.354;2024-03-17T09:04:37;7.00;7.00;6.00
76101;PMS7003;64830;46.910;6.354;2024-03-17T09:07:03;7.75;6.50;5.75
76101;PMS7003;64830;46.910;6.354;2024-03-17T09:09:29;7.00;7.00;4.00
76101;PMS7003;64830;46.910;6.354;2024-03-17T09:11:54;7.75;7.25;5.75
76101;PMS7003;64830;46.910;6.354;2024-03-17T09:14:20;6.25;6.25;4.00
76101;PMS7003;64830;46.910;6.354;2024-03-17T09:16:47;10.00;8.00;6.75
76101;PMS7003;64830;46.910;6.354;2024-03-17T09:19:12;12.00;10.25;7.25
76101;PMS7003;64830;46.910;6.354;2024-03-17T09:21:38;10.25;8.25;6.00
76101;PMS7003;64830;46.910;6.354;2024-03-17T09:24:05;9.75;8.75;8.00
76101;PMS7003;64830;46.910;6.354;2024-03-17T09:26:32;5.75;5.75;4.00
76101;PMS7003;64830;46.910;6.354;2024-03-17T09:28:59;9.25;6.00;4.00
76101;PMS7003;64830;46.910;6.354;2024-03-17T09:31:25;6.00;6.00;4.00
76101;PMS7003;64830;46.910;6.354;2024-03-17T09:33:51;11.25;8.00;4.75
76101;PMS7003;64830;46.910;6.354;2024-03-17T09:36:16;7.00;4.00;3.00
76101;PMS7003;64830;46.910;6.354;2024-03-17T09:38:43;7.75;4.75;3.00
76101;PMS7003;64830;46.910;6.354;2024-03-17T09:41:17;2.25;2.25;2.00
76101;PMS7003;64830;46.910;6.354;2024-03-17T09:43:49;3.25;3.25;2.50
76101;PMS7003;64830;46.910;6.354;2024-03-17T09:46:18;2.00;2.00;1.00
76101;PMS7003;64830;46.910;6.354;2024-03-17T09:48:44;7.25;4.50;3.00
76101;PMS7003;64830;46.910;6.354;2024-03-17T09:51:15;4.00;4.00;2.00
76101;PMS7003;64830;46.910;6.354;2024-03-17T09:53:44;2.75;2.75;2.50
76101;PMS7003;64830;46.910;6.354;2024-03-17T09:56:10;8.25;6.00;3.75
76101;PMS7003;64830;46.910;6.354;2024-03-17T09:58:37;8.50;7.75;5.00
76101;PMS7003;64830;46.910;6.354;2024-03-17T10:01:03;8.00;3.75;2.00
76101;PMS7003;64830;46.910;6.354;2024-03-17T10:06:15;2.75;2.00;1.75
76101;PMS7003;64830;46.910;6.354;2024-03-17T10:11:06;2.00;2.00;1.25
76101;PMS7003;64830;46.910;6.354;2024-03-17T10:13:33;0.00;0.00;0.00
76101;PMS7003;64830;46.910;6.354;2024-03-17T10:15:58;1.00;1.00;0.00
76101;PMS7003;64830;46.910;6.354;2024-03-17T10:18:23;1.00;1.00;0.25
76101;PMS7003;64830;46.910;6.354;2024-03-17T10:20:49;1.00;1.00;1.00
76101;PMS7003;64830;46.910;6.354;2024-03-17T10:23:21;1.00;1.00;1.00
76101;PMS7003;64830;46.910;6.354;2024-03-17T10:25:47;3.00;1.00;1.00
76101;PMS7003;64830;46.910;6.354;2024-03-17T10:28:14;3.00;3.00;2.00
76101;PMS7003;64830;46.910;6.354;2024-03-17T10:30:41;3.50;3.00;2.00
76101;PMS7003;64830;46.910;6.354;2024-03-17T10:33:19;0.00;0.00;0.00
76101;PMS7003;64830;46.910;6.354;2024-03-17T10:35:47;2.00;1.00;0.75
76101;PMS7003;64830;46.910;6.354;2024-03-17T10:38:13;1.50;1.25;1.00
76101;PMS7003;64830;46.910;6.354;2024-03-17T10:40:39;0.00;0.00;0.00
76101;PMS7003;64830;46.910;6.354;2024-03-17T10:43:06;1.00;1.00;0.25
76101;PMS7003;64830;46.910;6.354;2024-03-17T10:45:34;0.00;0.00;0.00
76101;PMS7003;64830;46.910;6.354;2024-03-17T10:48:05;0.25;0.25;0.00
76101;PMS7003;64830;46.910;6.354;2024-03-17T10:50:35;1.00;0.50;0.00
76101;PMS7003;64830;46.910;6.354;2024-03-17T10:53:06;1.25;1.00;0.25
76101;PMS7003;64830;46.910;6.354;2024-03-17T10:55:45;0.75;0.75;0.75
76101;PMS7003;64830;46.910;6.354;2024-03-17T10:58:33;4.25;1.00;1.00
76101;PMS7003;64830;46.910;6.354;2024-03-17T11:01:00;1.00;1.00;0.00
76101;PMS7003;64830;46.910;6.354;2024-03-17T11:03:32;0.00;0.00;0.00
76101;PMS7003;64830;46.910;6.354;2024-03-17T11:05:58;0.00;0.00;0.00
76101;PMS7003;64830;46.910;6.354;2024-03-17T11:08:28;2.25;0.75;0.00
76101;PMS7003;64830;46.910;6.354;2024-03-17T11:10:56;2.00;1.00;1.00
76101;PMS7003;64830;46.910;6.354;2024-03-17T11:13:22;0.75;0.75;0.00
76101;PMS7003;64830;46.910;6.354;2024-03-17T11:15:50;3.00;2.50;2.00
76101;PMS7003;64830;46.910;6.354;2024-03-17T11:20:59;1.50;1.50;1.00
76101;PMS7003;64830;46.910;6.354;2024-03-17T11:23:40;1.75;1.00;1.00
76101;PMS7003;64830;46.910;6.354;2024-03-17T11:26:06;1.00;1.00;1.00
76101;PMS7003;64830;46.910;6.354;2024-03-17T11:33:57;1.00;1.00;1.00
76101;PMS7003;64830;46.910;6.354;2024-03-17T11:38:54;1.00;1.00;1.00
76101;PMS7003;64830;46.910;6.354;2024-03-17T11:46:45;2.50;1.50;1.00
76101;PMS7003;64830;46.910;6.354;2024-03-17T11:49:28;0.75;0.75;0.00
76101;PMS7003;64830;46.910;6.354;2024-03-17T11:52:11;1.25;0.25;0.25
76101;PMS7003;64830;46.910;6.354;2024-03-17T11:54:41;1.00;1.00;0.75
76101;PMS7003;64830;46.910;6.354;2024-03-17T11:57:11;1.00;0.00;0.00
76101;PMS7003;64830;46.910;6.354;2024-03-17T11:59:39;1.00;0.50;0.25
76101;PMS7003;64830;46.910;6.354;2024-03-17T12:02:19;2.75;1.00;1.00
76101;PMS7003;64830;46.910;6.354;2024-03-17T12:04:45;1.50;1.00;1.00
76101;PMS7003;64830;46.910;6.354;2024-03-17T12:07:12;1.25;1.00;1.00
76101;PMS7003;64830;46.910;6.354;2024-03-17T12:09:40;0.00;0.00;0.00
76101;PMS7003;64830;46.910;6.354;2024-03-17T12:12:11;0.00;0.00;0.00
76101;PMS7003;64830;46.910;6.354;2024-03-17T12:14:41;0.00;0.00;0.00
76101;PMS7003;64830;46.910;6.354;2024-03-17T12:17:08;0.50;0.50;0.00
76101;PMS7003;64830;46.910;6.354;2024-03-17T12:19:35;1.00;1.00;1.00
76101;PMS7003;64830;46.910;6.354;2024-03-17T12:22:01;0.25;0.25;0.00
76101;PMS7003;64830;46.910;6.354;2024-03-17T12:24:28;1.00;0.00;0.00
76101;PMS7003;64830;46.910;6.354;2024-03-17T12:26:56;0.00;0.00;0.00
76101;PMS7003;64830;46.910;6.354;2024-03-17T12:29:31;0.00;0.00;0.00
76101;PMS7003;64830;46.910;6.354;2024-03-17T12:32:01;0.00;0.00;0.00
76101;PMS7003;64830;46.910;6.354;2024-03-17T12:34:29;1.00;0.00;0.00
76101;PMS7003;64830;46.910;6.354;2024-03-17T12:36:56;0.00;0.00;0.00
76101;PMS7003;64830;46.910;6.354;2024-03-17T12:39:29;0.00;0.00;0.00
76101;PMS7003;64830;46.910;6.354;2024-03-17T12:44:32;0.00;0.00;0.00
76101;PMS7003;64830;46.910;6.354;2024-03-17T12:46:59;0.00;0.00;0.00
76101;PMS7003;64830;46.910;6.354;2024-03-17T12:49:25;0.00;0.00;0.00
76101;PMS7003;64830;46.910;6.354;2024-03-17T12:51:52;0.00;0.00;0.00
76101;PMS7003;64830;46.910;6.354;2024-03-17T12:54:19;0.00;0.00;0.00
76101;PMS7003;64830;46.910;6.354;2024-03-17T12:56:45;0.00;0.00;0.00
76101;PMS7003;64830;46.910;6.354;2024-03-17T12:59:36;0.50;0.50;0.50
76101;PMS7003;64830;46.910;6.354;2024-03-17T13:02:21;0.00;0.00;0.00
76101;PMS7003;64830;46.910;6.354;2024-03-17T13:04:48;0.00;0.00;0.00
76101;PMS7003;64830;46.910;6.354;2024-03-17T13:07:37;0.00;0.00;0.00
76101;PMS7003;64830;46.910;6.354;2024-03-17T13:10:03;0.00;0.00;0.00
76101;PMS7003;64830;46.910;6.354;2024-03-17T13:12:32;1.50;0.00;0.00
76101;PMS7003;64830;46.910;6.354;2024-03-17T13:14:58;0.00;0.00;0.00
76101;PMS7003;64830;46.910;6.354;2024-03-17T13:17:23;0.00;0.00;0.00
76101;PMS7003;64830;46.910;6.354;2024-03-17T13:19:49;0.75;0.75;0.00
76101;PMS7003;64830;46.910;6.354;2024-03-17T13:22:14;0.00;0.00;0.00
76101;PMS7003;64830;46.910;6.354;2024-03-17T13:24:40;0.00;0.00;0.00
76101;PMS7003;64830;46.910;6.354;2024-03-17T13:27:05;1.00;1.00;1.00
76101;PMS7003;64830;46.910;6.354;2024-03-17T13:29:33;1.50;0.00;0.00
76101;PMS7003;64830;46.910;6.354;2024-03-17T13:32:02;2.00;0.00;0.00
76101;PMS7003;64830;46.910;6.354;2024-03-17T13:34:28;0.75;0.75;0.50
76101;PMS7003;64830;46.910;6.354;2024-03-17T13:36:54;2.00;0.00;0.00
76101;PMS7003;64830;46.910;6.354;2024-03-17T13:39:19;1.00;0.00;0.00
76101;PMS7003;64830;46.910;6.354;2024-03-17T13:41:49;0.00;0.00;0.00
76101;PMS7003;64830;46.910;6.354;2024-03-17T13:44:17;0.00;0.00;0.00
76101;PMS7003;64830;46.910;6.354;2024-03-17T13:46:43;0.00;0.00;0.00
76101;PMS7003;64830;46.910;6.354;2024-03-17T13:49:08;0.00;0.00;0.00
76101;PMS7003;64830;46.910;6.354;2024-03-17T13:51:34;0.00;0.00;0.00
76101;PMS7003;64830;46.910;6.354;2024-03-17T13:53:59;0.00;0.00;0.00
76101;PMS7003;64830;46.910;6.354;2024-03-17T13:56:25;1.00;0.00;0.00
76101;PMS7003;64830;46.910;6.354;2024-03-17T13:58:51;0.75;0.00;0.00
76101;PMS7003;64830;46.910;6.354;2024-03-17T14:01:17;0.50;0.50;0.00
76101;PMS7003;64830;46.910;6.354;2024-03-17T14:03:42;0.00;0.00;0.00
76101;PMS7003;64830;46.910;6.354;2024-03-17T14:06:08;1.00;0.00;0.00
76101;PMS7003;64830;46.910;6.354;2024-03-17T14:08:35;1.00;0.00;0.00
76101;PMS7003;64830;46.910;6.354;2024-03-17T14:11:01;0.00;0.00;0.00
76101;PMS7003;64830;46.910;6.354;2024-03-17T14:13:26;0.00;0.00;0.00
76101;PMS7003;64830;46.910;6.354;2024-03-17T14:15:55;0.00;0.00;0.00
76101;PMS7003;64830;46.910;6.354;2024-03-17T14:18:21;2.50;2.00;1.25
76101;PMS7003;64830;46.910;6.354;2024-03-17T14:20:46;1.50;1.25;1.00
76101;PMS7003;64830;46.910;6.354;2024-03-17T14:23:12;0.00;0.00;0.00
76101;PMS7003;64830;46.910;6.354;2024-03-17T14:25:38;0.50;0.50;0.00
76101;PMS7003;64830;46.910;6.354;2024-03-17T14:28:04;0.00;0.00;0.00
76101;PMS7003;64830;46.910;6.354;2024-03-17T14:30:30;0.00;0.00;0.00
76101;PMS7003;64830;46.910;6.354;2024-03-17T14:32:56;0.00;0.00;0.00
76101;PMS7003;64830;46.910;6.354;2024-03-17T14:35:21;2.00;0.00;0.00
76101;PMS7003;64830;46.910;6.354;2024-03-17T14:37:47;0.00;0.00;0.00
76101;PMS7003;64830;46.910;6.354;2024-03-17T14:40:14;0.00;0.00;0.00
76101;PMS7003;64830;46.910;6.354;2024-03-17T14:42:48;1.00;0.00;0.00
76101;PMS7003;64830;46.910;6.354;2024-03-17T14:45:15;0.00;0.00;0.00
76101;PMS7003;64830;46.910;6.354;2024-03-17T14:47:40;1.75;1.00;1.00